Time;durP1;ratioP1;P1;durP2;ratioP2;P2;SDS_P1;SDS_P2;PMS_P1;PMS_P2;Temp;Humidity;BMP_temperature;BMP_pressure;BME280_temperature;BME280_humidity;BME280_pressure;Samples;Min_cycle;Max_cycle;Signal;HPM_P1;HPM_P2
2023/10/21 00:00:46;;;;;;;0.60;0.40;;;13.60;99.90;;;;;;5109614;27;20503;-80
2023/10/21 00:03:13;;;;;;;4.63;0.60;;;13.60;99.90;;;;;;5124018;27;20478;-79
2023/10/21 00:05:41;;;;;;;0.53;0.50;;;13.50;99.90;;;;;;5107618;27;20528;-80
2023/10/21 00:08:08;;;;;;;0.50;0.40;;;13.50;99.90;;;;;;5117328;27;20491;-79
2023/10/21 00:10:35;;;;;;;0.77;0.60;;;13.50;99.90;;;;;;5116089;27;20557;-79
2023/10/21 00:13:02;;;;;;;0.50;0.40;;;13.50;99.90;;;;;;5105443;27;20781;-79
2023/10/21 00:15:29;;;;;;;0.60;0.30;;;13.50;99.90;;;;;;5120232;27;20994;-79
2023/10/21 00:17:56;;;;;;;0.40;0.30;;;13.60;99.90;;;;;;5108946;27;20661;-80
2023/10/21 00:20:23;;;;;;;0.50;0.40;;;13.60;99.90;;;;;;5120337;27;20542;-79
2023/10/21 00:22:51;;;;;;;0.50;0.40;;;13.60;99.90;;;;;;5122539;27;20839;-79
2023/10/21 00:25:18;;;;;;;0.53;0.40;;;13.60;99.90;;;;;;5116453;27;20457;-79
2023/10/21 00:27:45;;;;;;;1.53;0.40;;;13.60;99.90;;;;;;5108354;27;20924;-79
2023/10/21 00:30:13;;;;;;;0.70;0.53;;;13.60;99.90;;;;;;5114712;27;20436;-79
2023/10/21 00:32:40;;;;;;;0.60;0.43;;;13.50;99.90;;;;;;5113552;27;20922;-79
2023/10/21 00:35:07;;;;;;;0.60;0.50;;;13.40;99.90;;;;;;5120323;27;20875;-79
2023/10/21 00:37:34;;;;;;;0.67;0.50;;;13.40;99.90;;;;;;5110323;27;20471;-79
2023/10/21 00:40:03;;;;;;;0.70;0.40;;;13.40;99.90;;;;;;5119952;27;20517;-80
2023/10/21 00:42:30;;;;;;;0.57;0.40;;;13.30;99.90;;;;;;5107350;27;20518;-79
2023/10/21 00:44:57;;;;;;;0.50;0.30;;;13.40;99.90;;;;;;5108032;27;20466;-79
2023/10/21 00:47:24;;;;;;;1.43;0.30;;;13.40;99.90;;;;;;5105209;27;20913;-79
2023/10/21 00:49:52;;;;;;;0.50;0.40;;;13.30;99.90;;;;;;5124996;27;20799;-80
2023/10/21 00:52:20;;;;;;;5.90;0.40;;;13.30;99.90;;;;;;5107805;27;20461;-79
2023/10/21 00:54:47;;;;;;;0.60;0.40;;;13.20;99.90;;;;;;5119097;27;20497;-80
2023/10/21 00:57:15;;;;;;;1.10;0.43;;;13.20;99.90;;;;;;5118428;27;20506;-79
2023/10/21 00:59:44;;;;;;;0.50;0.40;;;13.20;99.90;;;;;;5111797;27;20799;-79
2023/10/21 01:02:13;;;;;;;0.80;0.40;;;13.10;99.90;;;;;;5115386;27;20495;-80
2023/10/21 01:04:40;;;;;;;0.60;0.50;;;13.20;99.90;;;;;;5109030;27;20522;-79
2023/10/21 01:07:15;;;;;;;0.40;0.30;;;13.20;99.90;;;;;;5110528;27;20558;-79
2023/10/21 01:09:42;;;;;;;0.70;0.40;;;13.30;99.90;;;;;;5119663;27;20524;-79
2023/10/21 01:12:09;;;;;;;0.50;0.40;;;13.20;99.90;;;;;;5107703;27;20487;-79
2023/10/21 01:14:38;;;;;;;0.50;0.40;;;13.20;99.90;;;;;;5112314;27;20950;-79
2023/10/21 01:17:05;;;;;;;0.83;0.40;;;13.20;99.90;;;;;;5108837;27;20684;-79
2023/10/21 01:19:32;;;;;;;0.70;0.50;;;13.20;99.90;;;;;;5110011;27;20537;-79
2023/10/21 01:21:59;;;;;;;0.50;0.40;;;13.20;99.90;;;;;;5114299;27;20495;-79
2023/10/21 01:24:28;;;;;;;0.50;0.40;;;13.20;99.90;;;;;;5108162;27;20518;-79
2023/10/21 01:26:55;;;;;;;0.57;0.30;;;13.20;99.90;;;;;;5106211;27;20754;-79
2023/10/21 01:29:21;;;;;;;0.50;0.30;;;13.10;99.90;;;;;;5110048;27;20452;-79
2023/10/21 01:31:48;;;;;;;0.60;0.37;;;13.10;99.90;;;;;;5122575;27;20444;-80
2023/10/21 01:34:16;;;;;;;0.87;0.30;;;13.20;99.90;;;;;;5116933;27;20502;-79
2023/10/21 01:36:43;;;;;;;0.60;0.40;;;13.20;99.90;;;;;;5108883;27;21034;-79
2023/10/21 01:39:11;;;;;;;0.50;0.37;;;13.10;99.90;;;;;;5108143;27;21050;-79
2023/10/21 01:41:40;;;;;;;0.40;0.30;;;13.00;99.90;;;;;;5114254;27;20444;-79
2023/10/21 01:44:07;;;;;;;0.50;0.40;;;13.00;99.90;;;;;;5114329;27;20494;-79
2023/10/21 01:46:34;;;;;;;2.30;0.43;;;12.90;99.90;;;;;;5104751;27;20467;-79
2023/10/21 01:49:01;;;;;;;1.37;0.97;;;12.80;99.90;;;;;;5110267;27;20527;-79
2023/10/21 01:51:28;;;;;;;0.47;0.30;;;12.70;99.90;;;;;;5115782;27;20449;-79
2023/10/21 01:53:55;;;;;;;0.57;0.57;;;12.70;99.90;;;;;;5113896;27;20511;-79
2023/10/21 01:56:21;;;;;;;0.73;0.40;;;12.60;99.90;;;;;;5117911;27;20466;-79
2023/10/21 01:58:50;;;;;;;0.70;0.40;;;12.50;99.90;;;;;;5120099;27;20899;-79
2023/10/21 02:01:17;;;;;;;1.33;0.50;;;12.40;99.90;;;;;;5125351;27;20488;-80
2023/10/21 02:03:43;;;;;;;0.70;0.50;;;12.30;99.90;;;;;;5125859;27;20514;-80
2023/10/21 02:06:11;;;;;;;0.50;0.40;;;12.20;99.90;;;;;;5106145;27;20473;-80
2023/10/21 02:08:38;;;;;;;0.50;0.40;;;12.20;99.90;;;;;;5115836;27;20466;-80
2023/10/21 02:11:04;;;;;;;0.40;0.30;;;12.20;99.90;;;;;;5111349;27;20528;-80
2023/10/21 02:13:31;;;;;;;0.50;0.40;;;12.10;99.90;;;;;;5107641;27;20450;-80
2023/10/21 02:16:00;;;;;;;0.50;0.37;;;12.10;99.90;;;;;;5113413;27;20474;-80
2023/10/21 02:18:27;;;;;;;0.40;0.30;;;12.00;99.90;;;;;;5125420;27;20470;-80
2023/10/21 02:20:54;;;;;;;0.50;0.30;;;12.00;99.90;;;;;;5109771;27;20491;-79
2023/10/21 02:23:21;;;;;;;0.50;0.40;;;11.90;99.90;;;;;;5111880;27;20463;-79
2023/10/21 02:25:59;;;;;;;1.20;0.40;;;11.90;99.90;;;;;;5121276;27;20457;-79
2023/10/21 02:28:26;;;;;;;0.70;0.50;;;11.80;99.90;;;;;;5111656;27;20444;-79
2023/10/21 02:30:53;;;;;;;0.50;0.50;;;11.80;99.90;;;;;;5116658;27;20494;-79
2023/10/21 02:33:21;;;;;;;1.10;0.50;;;11.90;99.90;;;;;;5113553;27;20990;-79
2023/10/21 02:35:52;;;;;;;0.60;0.33;;;11.80;99.90;;;;;;5107927;27;20492;-79
2023/10/21 02:38:19;;;;;;;1.20;0.40;;;11.70;99.90;;;;;;5107432;27;20532;-80
2023/10/21 02:40:46;;;;;;;0.50;0.40;;;11.70;99.90;;;;;;5118798;27;20872;-80
2023/10/21 02:43:13;;;;;;;1.00;0.60;;;11.70;99.90;;;;;;5119051;27;20452;-80
2023/10/21 02:45:40;;;;;;;0.60;0.50;;;11.60;99.90;;;;;;5105268;27;20448;-79
2023/10/21 02:48:08;;;;;;;0.77;0.40;;;11.50;99.90;;;;;;5113135;27;20956;-80
2023/10/21 02:50:36;;;;;;;0.87;0.40;;;11.50;99.90;;;;;;5110326;27;20473;-80
2023/10/21 02:53:03;;;;;;;0.50;0.40;;;11.50;99.90;;;;;;5109939;27;21006;-79
2023/10/21 02:55:30;;;;;;;0.50;0.40;;;11.50;99.90;;;;;;5125379;27;20441;-80
2023/10/21 02:57:57;;;;;;;0.50;0.37;;;11.30;99.90;;;;;;5119970;27;20445;-80
2023/10/21 03:00:26;;;;;;;0.47;0.30;;;11.30;99.90;;;;;;5110698;27;20493;-80
2023/10/21 03:02:53;;;;;;;0.60;0.47;;;11.10;99.90;;;;;;5108924;27;20445;-80
2023/10/21 03:05:20;;;;;;;0.50;0.50;;;11.00;99.90;;;;;;5110170;27;20440;-79
2023/10/21 03:07:48;;;;;;;0.80;0.50;;;11.10;99.90;;;;;;5107686;27;20536;-79
2023/10/21 03:10:15;;;;;;;0.60;0.50;;;11.10;99.90;;;;;;5119055;27;20504;-79
2023/10/21 03:12:42;;;;;;;0.70;0.50;;;11.20;99.90;;;;;;5105535;27;20444;-79
2023/10/21 03:15:11;;;;;;;0.60;0.60;;;11.10;99.90;;;;;;5108659;27;20467;-79
2023/10/21 03:17:38;;;;;;;0.50;0.30;;;10.90;99.90;;;;;;5121702;27;20504;-79
2023/10/21 03:20:07;;;;;;;3.60;1.53;;;10.90;99.90;;;;;;5106989;27;20513;-79
2023/10/21 03:22:33;;;;;;;1.43;0.50;;;10.90;99.90;;;;;;5115770;27;20549;-81
2023/10/21 03:25:02;;;;;;;0.67;0.60;;;10.80;99.90;;;;;;5110309;27;20539;-81
2023/10/21 03:27:29;;;;;;;0.97;0.50;;;10.80;99.90;;;;;;5103366;27;20449;-81
2023/10/21 03:29:56;;;;;;;0.53;0.53;;;10.70;99.90;;;;;;5122257;27;20529;-81
2023/10/21 03:32:23;;;;;;;1.07;0.60;;;10.70;99.90;;;;;;5106773;27;20549;-81
2023/10/21 03:34:49;;;;;;;1.97;0.73;;;10.60;99.90;;;;;;5105261;27;20557;-81
2023/10/21 03:37:16;;;;;;;1.33;0.70;;;10.80;99.90;;;;;;5106129;27;20516;-79
2023/10/21 03:39:43;;;;;;;0.60;0.60;;;10.80;99.90;;;;;;5102732;27;20487;-79
2023/10/21 03:42:12;;;;;;;0.70;0.67;;;10.80;99.90;;;;;;5108700;27;20900;-78
2023/10/21 03:44:38;;;;;;;0.97;0.87;;;10.70;99.90;;;;;;5106443;27;20985;-79
2023/10/21 03:47:05;;;;;;;0.70;0.60;;;10.60;99.90;;;;;;5120392;27;20519;-79
2023/10/21 03:49:32;;;;;;;0.57;0.57;;;10.50;99.90;;;;;;5109704;27;20459;-78
2023/10/21 03:51:59;;;;;;;0.70;0.70;;;10.50;99.90;;;;;;5112033;27;20444;-81
2023/10/21 03:54:26;;;;;;;0.60;0.60;;;10.50;99.90;;;;;;5104844;27;20903;-78
2023/10/21 03:56:53;;;;;;;1.33;0.50;;;10.40;99.90;;;;;;5119171;27;20443;-79
2023/10/21 03:59:21;;;;;;;1.10;0.73;;;10.30;99.90;;;;;;5109541;27;20492;-79
2023/10/21 04:01:48;;;;;;;0.70;0.70;;;10.30;99.90;;;;;;5110265;27;20572;-79
2023/10/21 04:04:15;;;;;;;1.17;0.67;;;10.40;99.90;;;;;;5119424;27;20440;-78
2023/10/21 04:06:42;;;;;;;2.30;0.70;;;10.40;99.90;;;;;;5112818;27;20544;-80
2023/10/21 04:09:09;;;;;;;1.10;0.70;;;10.20;99.90;;;;;;5107635;27;20452;-79
2023/10/21 04:11:36;;;;;;;0.70;0.60;;;10.10;99.90;;;;;;5109558;27;21008;-80
2023/10/21 04:14:05;;;;;;;0.90;0.70;;;10.00;99.90;;;;;;5108391;27;20455;-79
2023/10/21 04:16:33;;;;;;;0.70;0.70;;;10.00;99.90;;;;;;5121890;27;20535;-79
2023/10/21 04:19:01;;;;;;;0.80;0.60;;;10.10;99.90;;;;;;5104385;27;20517;-79
2023/10/21 04:21:28;;;;;;;0.70;0.70;;;10.20;99.90;;;;;;5119327;27;20493;-79
2023/10/21 04:23:55;;;;;;;1.27;0.70;;;10.20;99.90;;;;;;5112647;27;20462;-79
2023/10/21 04:26:21;;;;;;;0.70;0.70;;;10.20;99.90;;;;;;5102224;27;20469;-79
2023/10/21 04:28:49;;;;;;;1.80;0.67;;;10.20;99.90;;;;;;5114983;27;20489;-80
2023/10/21 04:31:16;;;;;;;0.60;0.60;;;10.10;99.90;;;;;;5130606;27;20460;-79
2023/10/21 04:33:45;;;;;;;1.30;0.73;;;10.10;99.90;;;;;;5106815;27;20447;-79
2023/10/21 04:36:12;;;;;;;0.80;0.70;;;10.10;99.90;;;;;;5105715;27;20448;-80
2023/10/21 04:38:39;;;;;;;1.13;0.63;;;10.00;99.90;;;;;;5105731;27;20439;-79
2023/10/21 04:41:08;;;;;;;0.70;0.70;;;10.00;99.90;;;;;;5129392;27;20481;-79
2023/10/21 04:43:35;;;;;;;0.70;0.70;;;10.00;99.90;;;;;;5102256;27;20549;-79
2023/10/21 04:46:02;;;;;;;1.50;0.97;;;10.10;99.90;;;;;;5104586;27;20448;-78
2023/10/21 04:48:29;;;;;;;0.60;0.60;;;10.00;99.90;;;;;;5108648;27;20510;-79
2023/10/21 04:50:58;;;;;;;0.87;0.60;;;10.00;99.90;;;;;;5106466;27;20530;-79
2023/10/21 04:53:24;;;;;;;0.60;0.50;;;9.90;99.90;;;;;;5107832;27;20494;-80
2023/10/21 04:55:51;;;;;;;0.80;0.70;;;10.00;99.90;;;;;;5107814;27;20886;-80
2023/10/21 04:58:18;;;;;;;0.60;0.50;;;9.90;99.90;;;;;;5112757;27;20508;-79
2023/10/21 05:00:46;;;;;;;0.90;0.60;;;9.90;99.90;;;;;;5112327;27;20841;-80
2023/10/21 05:03:13;;;;;;;1.97;0.70;;;9.90;99.90;;;;;;5114331;27;20505;-79
2023/10/21 05:05:40;;;;;;;0.90;0.63;;;10.00;99.90;;;;;;5121048;27;20466;-79
2023/10/21 05:08:08;;;;;;;2.07;1.10;;;10.00;99.90;;;;;;5110118;27;20527;-81
2023/10/21 05:10:35;;;;;;;0.90;0.83;;;10.00;99.90;;;;;;5106286;27;20530;-78
2023/10/21 05:13:02;;;;;;;2.03;1.83;;;10.00;99.90;;;;;;5121509;27;20999;-79
2023/10/21 05:15:29;;;;;;;3.73;1.97;;;10.00;99.90;;;;;;5125912;27;20902;-79
2023/10/21 05:17:57;;;;;;;2.40;2.20;;;10.10;99.90;;;;;;5119166;27;20449;-80
2023/10/21 05:20:24;;;;;;;2.03;1.10;;;10.10;99.90;;;;;;5110011;27;20490;-80
2023/10/21 05:22:51;;;;;;;1.40;1.13;;;10.10;99.90;;;;;;5121021;27;20762;-80
2023/10/21 05:25:19;;;;;;;1.13;0.90;;;10.00;99.90;;;;;;5117555;27;20523;-80
2023/10/21 05:27:46;;;;;;;0.93;0.83;;;9.90;99.90;;;;;;5114711;27;20447;-80
2023/10/21 05:30:14;;;;;;;1.23;1.00;;;9.80;99.90;;;;;;5107417;27;20501;-81
2023/10/21 05:32:41;;;;;;;2.17;0.70;;;9.80;99.90;;;;;;5117037;27;20493;-80
2023/10/21 05:35:09;;;;;;;0.73;0.60;;;9.70;99.90;;;;;;5121810;27;20469;-81
2023/10/21 05:37:36;;;;;;;0.90;0.77;;;9.80;99.90;;;;;;5105264;27;20522;-81
2023/10/21 05:40:04;;;;;;;9.30;0.80;;;9.80;99.90;;;;;;5118542;27;20557;-82
2023/10/21 05:42:33;;;;;;;1.30;1.00;;;9.70;99.90;;;;;;5115151;27;20458;-81
2023/10/21 05:45:00;;;;;;;1.43;1.10;;;9.60;99.90;;;;;;5117714;27;20529;-81
2023/10/21 05:47:27;;;;;;;1.57;1.13;;;9.60;99.90;;;;;;5108695;27;20542;-82
2023/10/21 05:49:55;;;;;;;0.87;0.80;;;9.60;99.90;;;;;;5118039;27;20548;-81
2023/10/21 05:52:22;;;;;;;0.93;0.90;;;9.50;99.90;;;;;;5121453;27;21115;-81
2023/10/21 05:54:49;;;;;;;1.20;0.73;;;9.40;99.90;;;;;;5120592;27;20504;-81
2023/10/21 05:57:16;;;;;;;1.23;0.90;;;9.50;99.90;;;;;;5114293;27;20908;-81
2023/10/21 05:59:44;;;;;;;1.30;1.10;;;9.50;99.90;;;;;;5105543;27;20446;-81
2023/10/21 06:02:11;;;;;;;4.50;2.60;;;9.60;99.90;;;;;;5111413;27;20481;-81
2023/10/21 06:04:38;;;;;;;3.17;2.10;;;9.60;99.90;;;;;;5111923;27;20477;-81
2023/10/21 06:07:05;;;;;;;2.10;1.73;;;9.60;99.90;;;;;;5116626;27;20490;-80
2023/10/21 06:09:32;;;;;;;0.90;0.90;;;9.70;99.90;;;;;;5108124;27;20519;-80
2023/10/21 06:12:00;;;;;;;1.33;0.73;;;9.90;99.90;;;;;;5112920;27;21037;-80
2023/10/21 06:14:27;;;;;;;1.47;0.73;;;9.90;99.90;;;;;;5120724;27;20858;-80
2023/10/21 06:16:55;;;;;;;0.90;0.90;;;9.90;99.90;;;;;;5125514;27;20509;-80
2023/10/21 06:19:22;;;;;;;1.37;0.97;;;10.10;99.90;;;;;;5105701;27;20558;-80
2023/10/21 06:21:49;;;;;;;0.90;0.60;;;10.20;99.90;;;;;;5119577;27;20541;-80
2023/10/21 06:24:16;;;;;;;1.20;0.73;;;10.20;99.90;;;;;;5121261;27;20521;-80
2023/10/21 06:26:44;;;;;;;1.30;0.87;;;10.30;99.90;;;;;;5123310;27;20444;-80
2023/10/21 06:29:10;;;;;;;1.03;0.93;;;10.30;99.90;;;;;;5114053;27;20466;-80
2023/10/21 06:31:37;;;;;;;1.77;0.80;;;10.30;99.90;;;;;;5108920;27;20492;-80
2023/10/21 06:34:06;;;;;;;1.93;1.10;;;10.40;99.90;;;;;;5116795;27;20469;-80
2023/10/21 06:36:34;;;;;;;1.30;1.20;;;10.40;99.90;;;;;;5120232;27;20556;-80
2023/10/21 06:39:00;;;;;;;0.90;0.80;;;10.40;99.90;;;;;;5107443;27;20464;-81
2023/10/21 06:41:27;;;;;;;1.40;1.30;;;10.50;99.90;;;;;;5117520;27;20549;-79
2023/10/21 06:43:57;;;;;;;3.13;0.83;;;10.50;99.90;;;;;;5121777;27;20461;-79
2023/10/21 06:46:24;;;;;;;1.33;0.90;;;10.60;99.90;;;;;;5122404;27;20465;-79
2023/10/21 06:48:51;;;;;;;2.13;1.27;;;10.80;99.90;;;;;;5118709;27;20532;-80
2023/10/21 06:51:19;;;;;;;1.20;1.20;;;10.90;99.90;;;;;;5118795;27;20780;-80
2023/10/21 06:53:46;;;;;;;0.80;0.73;;;10.90;99.90;;;;;;5125903;27;20455;-81
2023/10/21 06:56:13;;;;;;;2.73;1.10;;;11.00;99.90;;;;;;5119226;27;20546;-81
2023/10/21 06:58:41;;;;;;;1.10;0.70;;;11.00;99.90;;;;;;5104424;27;20526;-82
2023/10/21 07:01:08;;;;;;;1.03;0.70;;;11.20;99.90;;;;;;5114441;27;20484;-81
2023/10/21 07:03:35;;;;;;;1.37;0.80;;;11.20;99.90;;;;;;5110790;27;20469;-81
2023/10/21 07:06:02;;;;;;;0.80;0.77;;;11.30;99.90;;;;;;5113874;27;20462;-81
2023/10/21 07:08:30;;;;;;;1.20;1.10;;;11.40;99.90;;;;;;5106135;27;20462;-81
2023/10/21 07:10:57;;;;;;;0.80;0.80;;;11.50;99.90;;;;;;5109648;27;20524;-81
2023/10/21 07:13:24;;;;;;;1.00;1.00;;;11.60;99.90;;;;;;5119886;27;20511;-81
2023/10/21 07:15:52;;;;;;;1.83;0.80;;;11.80;99.90;;;;;;5126485;27;20460;-81
2023/10/21 07:18:19;;;;;;;1.17;0.80;;;11.80;99.90;;;;;;5113954;27;20977;-81
2023/10/21 07:20:46;;;;;;;1.23;1.13;;;11.90;99.90;;;;;;5108705;27;20455;-80
2023/10/21 07:23:14;;;;;;;2.60;1.10;;;11.90;99.90;;;;;;5114216;27;20509;-80
2023/10/21 07:25:43;;;;;;;0.90;0.87;;;12.10;99.90;;;;;;5116495;27;20454;-80
2023/10/21 07:28:10;;;;;;;1.10;1.00;;;12.20;99.90;;;;;;5109028;27;20512;-80
2023/10/21 07:30:37;;;;;;;1.17;0.90;;;12.30;99.90;;;;;;5115258;27;20505;-80
2023/10/21 07:33:04;;;;;;;1.13;1.00;;;12.50;99.90;;;;;;5110519;27;20464;-80
2023/10/21 07:35:31;;;;;;;1.00;0.70;;;12.80;99.90;;;;;;5104834;27;20440;-81
2023/10/21 07:37:58;;;;;;;1.40;1.23;;;12.80;99.90;;;;;;5109255;27;20502;-81
2023/10/21 07:40:25;;;;;;;1.67;1.00;;;12.90;99.90;;;;;;5110769;27;20466;-81
2023/10/21 07:42:54;;;;;;;1.60;1.40;;;13.10;99.90;;;;;;5103652;27;20492;-81
2023/10/21 07:45:21;;;;;;;2.07;1.77;;;12.90;99.90;;;;;;5112915;27;20498;-81
2023/10/21 07:47:48;;;;;;;3.10;1.50;;;13.00;99.90;;;;;;5105526;27;20456;-81
2023/10/21 07:50:17;;;;;;;1.33;1.23;;;13.10;99.90;;;;;;5105880;27;20464;-82
2023/10/21 07:52:44;;;;;;;1.87;1.77;;;13.10;99.90;;;;;;5117530;27;20542;-82
2023/10/21 07:55:12;;;;;;;7.10;3.30;;;13.10;99.90;;;;;;5115931;27;20452;-80
2023/10/21 07:57:40;;;;;;;4.00;3.37;;;13.30;99.90;;;;;;5110424;27;20529;-80
2023/10/21 08:00:13;;;;;;;3.57;2.90;;;13.30;99.90;;;;;;5113348;27;20563;-80
2023/10/21 08:02:40;;;;;;;1.73;1.63;;;13.30;99.90;;;;;;5111140;27;20998;-80
2023/10/21 08:05:08;;;;;;;3.03;2.70;;;13.20;99.90;;;;;;5123094;27;20526;-81
2023/10/21 08:07:35;;;;;;;4.53;2.77;;;13.40;99.90;;;;;;5106923;27;21152;-81
2023/10/21 08:10:04;;;;;;;3.83;3.27;;;13.40;99.90;;;;;;5109672;27;20469;-81
2023/10/21 08:12:32;;;;;;;3.33;3.03;;;13.50;99.90;;;;;;5111312;27;20494;-81
2023/10/21 08:14:59;;;;;;;4.13;3.80;;;13.60;99.90;;;;;;5107652;27;20475;-81
2023/10/21 08:17:28;;;;;;;4.30;3.53;;;13.80;99.90;;;;;;5111999;27;20466;-80
2023/10/21 08:19:56;;;;;;;4.63;4.20;;;13.90;99.90;;;;;;5102550;27;20787;-81
2023/10/21 08:22:23;;;;;;;4.10;3.20;;;14.00;99.90;;;;;;5118627;27;20494;-80
2023/10/21 08:24:50;;;;;;;4.17;3.90;;;14.20;99.90;;;;;;5108557;27;20523;-81
2023/10/21 08:27:17;;;;;;;4.20;3.90;;;14.20;99.90;;;;;;5111782;27;20449;-81
2023/10/21 08:29:44;;;;;;;4.23;3.83;;;14.40;99.90;;;;;;5105140;27;20506;-81
2023/10/21 08:32:11;;;;;;;3.60;3.30;;;14.50;99.90;;;;;;5106229;27;20516;-82
2023/10/21 08:34:39;;;;;;;4.00;3.63;;;14.60;99.90;;;;;;5104510;27;20448;-81
2023/10/21 08:37:07;;;;;;;5.07;4.73;;;14.70;99.90;;;;;;5103213;27;20475;-81
2023/10/21 08:39:34;;;;;;;5.03;4.17;;;14.80;99.90;;;;;;5105417;27;20825;-80
2023/10/21 08:42:02;;;;;;;3.50;3.20;;;14.80;99.90;;;;;;5113161;27;21071;-80
2023/10/21 08:44:30;;;;;;;3.80;3.50;;;14.80;99.90;;;;;;5113781;27;20453;-80
2023/10/21 08:47:00;;;;;;;5.20;4.17;;;14.90;99.90;;;;;;5111774;27;20469;-80
2023/10/21 08:49:28;;;;;;;5.07;3.30;;;15.00;99.90;;;;;;5107621;27;20472;-81
2023/10/21 08:51:59;;;;;;;4.40;3.00;;;15.00;99.90;;;;;;5114437;27;20744;-81
2023/10/21 08:54:27;;;;;;;4.47;4.17;;;14.90;99.90;;;;;;5115055;27;20443;-81
2023/10/21 08:56:54;;;;;;;4.10;3.00;;;14.90;99.90;;;;;;5119021;27;20446;-80
2023/10/21 08:59:22;;;;;;;3.27;2.73;;;15.00;99.90;;;;;;5109074;27;20526;-81
2023/10/21 09:01:49;;;;;;;4.57;3.00;;;15.20;99.90;;;;;;5116278;27;20953;-81
2023/10/21 09:04:19;;;;;;;3.13;2.63;;;15.30;99.90;;;;;;5126756;27;20505;-81
2023/10/21 09:06:58;;;;;;;5.47;4.40;;;15.50;99.90;;;;;;5109481;27;20515;-81
2023/10/21 09:09:27;;;;;;;4.27;2.60;;;15.70;99.90;;;;;;5107022;27;20941;-81
2023/10/21 09:12:10;;;;;;;4.27;3.30;;;15.70;99.90;;;;;;5110975;27;20495;-81
2023/10/21 09:14:55;;;;;;;2.80;2.37;;;15.70;99.90;;;;;;5121441;27;20971;-80
2023/10/21 09:17:22;;;;;;;3.23;2.93;;;15.80;99.90;;;;;;5127300;27;20542;-80
2023/10/21 09:19:51;;;;;;;3.20;3.00;;;15.80;99.90;;;;;;5106234;27;20464;-80
2023/10/21 09:22:25;;;;;;;4.10;3.60;;;16.00;99.90;;;;;;5109339;27;20490;-80
2023/10/21 09:24:52;;;;;;;3.47;3.17;;;16.00;99.90;;;;;;5119335;27;20532;-80
2023/10/21 09:27:19;;;;;;;4.87;3.10;;;16.10;99.90;;;;;;5113571;27;20950;-80
2023/10/21 09:29:46;;;;;;;2.93;2.70;;;16.20;99.90;;;;;;5108596;27;20465;-80
2023/10/21 09:32:13;;;;;;;5.47;2.60;;;16.20;99.90;;;;;;5114804;27;20441;-80
2023/10/21 09:34:41;;;;;;;2.40;2.20;;;16.30;99.90;;;;;;5106382;27;20462;-81
2023/10/21 09:37:08;;;;;;;2.50;2.30;;;16.50;99.90;;;;;;5106902;27;20560;-81
2023/10/21 09:39:37;;;;;;;3.20;2.40;;;16.60;99.90;;;;;;5106614;27;20445;-81
2023/10/21 09:42:05;;;;;;;4.50;2.20;;;16.60;99.90;;;;;;5114646;27;21040;-81
2023/10/21 09:44:34;;;;;;;1.67;1.57;;;16.60;99.90;;;;;;5110639;27;20442;-81
2023/10/21 09:47:06;;;;;;;2.53;1.43;;;16.70;99.90;;;;;;5106767;27;20461;-80
2023/10/21 09:49:37;;;;;;;1.60;1.50;;;16.80;99.90;;;;;;5106950;27;20511;-80
2023/10/21 09:52:06;;;;;;;2.17;1.97;;;16.80;99.90;;;;;;5111034;27;21047;-80
2023/10/21 09:54:43;;;;;;;1.30;1.10;;;16.80;99.90;;;;;;5109686;27;20473;-81
2023/10/21 09:57:11;;;;;;;1.70;1.40;;;16.80;99.90;;;;;;5114576;27;20449;-81
2023/10/21 09:59:39;;;;;;;2.23;1.67;;;16.90;99.90;;;;;;5110168;27;20839;-82
2023/10/21 10:02:06;;;;;;;2.40;1.77;;;16.90;99.90;;;;;;5113155;27;20493;-81
2023/10/21 10:04:36;;;;;;;1.60;1.40;;;17.00;99.90;;;;;;5110400;27;20885;-81
2023/10/21 10:07:07;;;;;;;1.70;1.60;;;17.10;99.90;;;;;;5116319;27;20480;-82
2023/10/21 10:09:36;;;;;;;2.60;1.53;;;16.90;99.90;;;;;;5112004;27;20446;-80
2023/10/21 10:12:08;;;;;;;1.40;1.30;;;16.90;99.90;;;;;;5121775;27;20472;-79
2023/10/21 10:14:36;;;;;;;1.20;1.10;;;17.10;99.90;;;;;;5117861;27;20449;-80
2023/10/21 10:17:05;;;;;;;2.30;0.97;;;17.20;99.90;;;;;;5120848;27;20457;-80
2023/10/21 10:19:40;;;;;;;0.70;0.70;;;17.20;99.90;;;;;;5124486;27;20453;-80
2023/10/21 10:22:20;;;;;;;1.00;0.83;;;17.40;99.90;;;;;;5124310;27;20484;-80
2023/10/21 10:24:56;;;;;;;1.30;1.00;;;17.80;99.50;;;;;;5120102;27;20453;-81
2023/10/21 10:27:37;;;;;;;2.23;1.07;;;18.00;97.90;;;;;;5114839;27;20451;-80
2023/10/21 10:30:09;;;;;;;2.30;1.00;;;18.20;97.70;;;;;;5122482;27;20521;-80
2023/10/21 10:32:43;;;;;;;1.00;0.90;;;18.40;97.50;;;;;;5125427;27;20434;-80
2023/10/21 10:35:14;;;;;;;1.07;0.80;;;18.50;96.10;;;;;;5109294;27;20446;-80
2023/10/21 10:37:52;;;;;;;0.93;0.70;;;18.50;94.90;;;;;;5116300;27;20438;-79
2023/10/21 10:40:20;;;;;;;0.90;0.80;;;18.40;95.60;;;;;;5107560;27;20955;-79
2023/10/21 10:42:48;;;;;;;1.63;1.27;;;18.50;95.60;;;;;;5116242;27;20542;-79
2023/10/21 10:45:16;;;;;;;1.43;0.73;;;18.50;96.00;;;;;;5105552;27;20918;-79
2023/10/21 10:47:43;;;;;;;2.63;1.27;;;18.80;95.90;;;;;;5104599;27;20491;-79
2023/10/21 10:50:16;;;;;;;1.03;0.80;;;19.20;96.00;;;;;;5117233;27;20458;-79
2023/10/21 10:52:42;;;;;;;0.93;0.93;;;19.30;94.10;;;;;;5109286;27;20480;-80
2023/10/21 10:55:14;;;;;;;1.60;1.50;;;19.50;93.10;;;;;;5106575;27;20447;-80
2023/10/21 10:57:43;;;;;;;1.10;1.00;;;19.70;92.60;;;;;;5107459;27;20460;-80
2023/10/21 11:00:20;;;;;;;1.53;1.03;;;19.60;92.80;;;;;;5115501;27;20454;-80
2023/10/21 11:02:47;;;;;;;1.20;1.10;;;19.40;91.40;;;;;;5119754;27;21030;-79
2023/10/21 11:05:20;;;;;;;1.10;1.00;;;19.50;92.40;;;;;;5114485;27;20842;-80
2023/10/21 11:07:47;;;;;;;2.43;2.20;;;19.60;91.90;;;;;;5114074;27;20461;-80
2023/10/21 11:10:20;;;;;;;1.33;0.97;;;19.80;88.70;;;;;;5110009;27;20507;-79
2023/10/21 11:12:48;;;;;;;1.10;0.80;;;19.70;89.10;;;;;;5104931;27;20450;-79
2023/10/21 11:15:17;;;;;;;3.77;0.80;;;19.60;89.70;;;;;;5121725;27;20976;-80
2023/10/21 11:17:46;;;;;;;1.13;0.80;;;19.70;91.40;;;;;;5121903;27;20552;-80
2023/10/21 11:20:14;;;;;;;0.87;0.70;;;19.70;91.30;;;;;;5124017;27;20445;-80
2023/10/21 11:22:41;;;;;;;0.93;0.73;;;19.70;90.00;;;;;;5105856;27;20485;-80
2023/10/21 11:25:09;;;;;;;0.77;0.60;;;19.40;88.30;;;;;;5115140;27;20497;-80
2023/10/21 11:27:37;;;;;;;1.77;1.00;;;19.60;90.20;;;;;;5106309;27;20481;-80
2023/10/21 11:30:08;;;;;;;1.53;0.70;;;19.50;86.10;;;;;;5116771;27;20438;-80
2023/10/21 11:32:37;;;;;;;1.90;1.00;;;19.60;87.20;;;;;;5113752;27;20495;-81
2023/10/21 11:35:09;;;;;;;1.30;1.20;;;19.80;86.50;;;;;;5105846;27;20571;-79
2023/10/21 11:37:37;;;;;;;1.30;0.90;;;19.60;85.90;;;;;;5108456;27;20484;-79
2023/10/21 11:40:09;;;;;;;2.80;1.10;;;19.70;87.00;;;;;;5117873;27;20971;-79
2023/10/21 11:42:37;;;;;;;0.80;0.70;;;19.70;81.40;;;;;;5106687;27;20492;-80
2023/10/21 11:45:07;;;;;;;0.60;0.50;;;19.50;82.80;;;;;;5105104;27;20462;-80
2023/10/21 11:47:35;;;;;;;3.20;0.80;;;19.50;84.60;;;;;;5105467;27;21013;-80
2023/10/21 11:50:03;;;;;;;1.10;0.70;;;19.50;83.40;;;;;;5112452;27;20446;-80
2023/10/21 11:52:32;;;;;;;0.90;0.70;;;19.60;81.60;;;;;;5106552;27;20544;-80
2023/10/21 11:58:51;;;;;;;1.07;0.97;;;19.60;84.30;;;;;;5111797;27;20453;-79
2023/10/21 12:14:44;;;;;;;1.17;1.13;;;19.90;80.70;;;;;;5106419;27;20514;-79
2023/10/21 12:20:23;;;;;;;4.47;0.70;;;19.90;80.90;;;;;;5131953;27;20448;-79
2023/10/21 12:36:36;;;;;;;0.90;0.70;;;19.80;79.20;;;;;;5120377;27;20487;-80
2023/10/21 12:39:21;;;;;;;0.90;0.60;;;20.00;77.10;;;;;;5132707;27;20440;-80
2023/10/21 12:41:52;;;;;;;1.10;0.53;;;19.90;75.30;;;;;;5113528;27;20434;-80
2023/10/21 12:44:23;;;;;;;0.90;0.60;;;20.00;78.10;;;;;;5108244;27;20493;-80
2023/10/21 12:46:55;;;;;;;0.63;0.60;;;20.10;80.30;;;;;;5119622;27;20460;-79
2023/10/21 12:49:24;;;;;;;0.60;0.50;;;20.10;77.40;;;;;;5123999;27;20460;-80
2023/10/21 12:51:55;;;;;;;0.70;0.70;;;20.10;77.00;;;;;;5120104;27;20462;-80
2023/10/21 12:54:22;;;;;;;1.00;0.90;;;20.30;75.30;;;;;;5120506;27;20506;-80
2023/10/21 12:56:50;;;;;;;2.23;0.50;;;20.20;74.50;;;;;;5120038;27;20452;-79
2023/10/21 12:59:19;;;;;;;2.57;0.60;;;20.00;77.10;;;;;;5126173;27;20572;-79
2023/10/21 13:01:46;;;;;;;0.83;0.70;;;20.10;79.90;;;;;;5124869;27;20460;-81
2023/10/21 13:04:13;;;;;;;0.93;0.60;;;20.00;76.90;;;;;;5124052;27;20561;-80
2023/10/21 13:06:41;;;;;;;1.10;1.00;;;20.10;77.40;;;;;;5124331;27;21243;-81
2023/10/21 13:09:23;;;;;;;3.17;0.80;;;20.20;77.20;;;;;;5126791;27;20448;-80
2023/10/21 13:11:50;;;;;;;1.00;0.60;;;20.20;73.50;;;;;;5111471;27;20546;-80
2023/10/21 13:14:18;;;;;;;1.90;0.90;;;20.20;75.20;;;;;;5129613;27;21030;-80
2023/10/21 13:16:45;;;;;;;1.00;0.90;;;20.30;74.80;;;;;;5128263;27;20433;-80
2023/10/21 13:19:13;;;;;;;0.77;0.60;;;20.30;73.90;;;;;;5131642;27;20947;-80
2023/10/21 13:21:40;;;;;;;1.33;0.70;;;20.00;73.70;;;;;;5127822;27;20522;-80
2023/10/21 13:24:09;;;;;;;2.00;0.70;;;19.90;73.90;;;;;;5121296;27;20480;-80
2023/10/21 13:26:37;;;;;;;3.50;0.80;;;19.70;76.60;;;;;;5135605;27;20437;-80